KLOL/LOL METAR and TAF weather

Enter ICAO airport designator
Station Type Date Time Source
KLOL METAR 2019/07/15 19:53 UTC NOAA

KLOL 151953Z AUTO 18009KT 10SM CLR 31/02 A3008 RMK AO2 SLP142 T03110022


Station Type Date Time Source
KLOL Decoded METAR 2019/07/15 19:53 UTC NOAA

LOVELOCK DERBY FIELD, NV, United States (KLOL) 40-04N 118-34W 1189M
Jul 15, 2019 - 03:53 PM EDT / 2019.07.15 1953 UTC
Wind: from the S (180 degrees) at 10 MPH (9 KT):0
Visibility: 10 mile(s):0
Sky conditions: clear
Temperature: 88.0 F (31.1 C)
Dew Point: 36.0 F (2.2 C)
Relative Humidity: 15%
Pressure (altimeter): 30.08 in. Hg (1018 hPa)
ob: KLOL 151953Z AUTO 18009KT 10SM CLR 31/02 A3008 RMK AO2 SLP142 T03110022
cycle: 20

Station Type Date Time Source
KLOL TAF 2010/01/05 05:22 UTC NOAA

TAF KLOL 050522Z 0506/0606 00000KT 1/4SM FZFG VV001
FM052000 VRB03KT 3SM BR OVC002
AMD NOT SKED

Example: see airport list